sensor_id;sensor_type;location;lat;lon;timestamp;temperature;humidity
8408;DHT22;4241;48.452;9.216;2024-01-15T00:01:06;-1.60;99.90
8408;DHT22;4241;48.452;9.216;2024-01-15T00:03:35;-1.60;99.90
8408;DHT22;4241;48.452;9.216;2024-01-15T00:06:02;-1.50;99.90
8408;DHT22;4241;48.452;9.216;2024-01-15T00:08:29;-1.50;99.90
8408;DHT22;4241;48.452;9.216;2024-01-15T00:10:56;-1.40;99.90
8408;DHT22;4241;48.452;9.216;2024-01-15T00:13:23;-1.40;99.90
8408;DHT22;4241;48.452;9.216;2024-01-15T00:15:49;-1.30;99.90
8408;DHT22;4241;48.452;9.216;2024-01-15T00:18:16;-1.30;99.90
8408;DHT22;4241;48.452;9.216;2024-01-15T00:20:44;-1.30;99.90
8408;DHT22;4241;48.452;9.216;2024-01-15T00:23:11;-1.30;99.90
8408;DHT22;4241;48.452;9.216;2024-01-15T00:25:38;-1.30;99.90
8408;DHT22;4241;48.452;9.216;2024-01-15T00:28:05;-1.20;99.90
8408;DHT22;4241;48.452;9.216;2024-01-15T00:30:32;-1.20;99.90
8408;DHT22;4241;48.452;9.216;2024-01-15T00:32:59;-1.20;99.90
8408;DHT22;4241;48.452;9.216;2024-01-15T00:35:25;-1.30;99.90
8408;DHT22;4241;48.452;9.216;2024-01-15T00:37:54;-1.30;99.90
8408;DHT22;4241;48.452;9.216;2024-01-15T00:40:21;-1.30;99.90
8408;DHT22;4241;48.452;9.216;2024-01-15T00:42:47;-1.30;99.90
8408;DHT22;4241;48.452;9.216;2024-01-15T00:45:14;-1.50;99.90
8408;DHT22;4241;48.452;9.216;2024-01-15T00:47:41;-1.20;99.90
8408;DHT22;4241;48.452;9.216;2024-01-15T00:50:09;-1.30;99.90
8408;DHT22;4241;48.452;9.216;2024-01-15T00:52:36;-1.20;99.90
8408;DHT22;4241;48.452;9.216;2024-01-15T00:55:05;-1.40;99.90
8408;DHT22;4241;48.452;9.216;2024-01-15T00:57:32;-1.20;99.90
8408;DHT22;4241;48.452;9.216;2024-01-15T00:59:59;-1.20;99.90
8408;DHT22;4241;48.452;9.216;2024-01-15T01:02:26;-1.20;99.90
8408;DHT22;4241;48.452;9.216;2024-01-15T01:04:53;-1.20;99.90
8408;DHT22;4241;48.452;9.216;2024-01-15T01:07:19;-1.10;99.90
8408;DHT22;4241;48.452;9.216;2024-01-15T01:09:46;-1.10;99.90
8408;DHT22;4241;48.452;9.216;2024-01-15T01:12:15;-1.10;99.90
8408;DHT22;4241;48.452;9.216;2024-01-15T01:14:42;-1.00;99.90
8408;DHT22;4241;48.452;9.216;2024-01-15T01:17:09;-1.10;99.90
8408;DHT22;4241;48.452;9.216;2024-01-15T01:19:35;-1.00;99.90
8408;DHT22;4241;48.452;9.216;2024-01-15T01:22:02;-1.00;99.90
8408;DHT22;4241;48.452;9.216;2024-01-15T01:24:29;-1.00;99.90
8408;DHT22;4241;48.452;9.216;2024-01-15T01:26:56;-1.00;99.90
8408;DHT22;4241;48.452;9.216;2024-01-15T01:29:24;-1.00;99.90
8408;DHT22;4241;48.452;9.216;2024-01-15T01:31:51;-1.00;99.90
8408;DHT22;4241;48.452;9.216;2024-01-15T01:34:18;-1.00;99.90
8408;DHT22;4241;48.452;9.216;2024-01-15T01:36:45;-1.00;99.90
8408;DHT22;4241;48.452;9.216;2024-01-15T01:39:12;-1.00;99.90
8408;DHT22;4241;48.452;9.216;2024-01-15T01:41:39;-1.00;99.90
8408;DHT22;4241;48.452;9.216;2024-01-15T01:44:06;-1.00;99.90
8408;DHT22;4241;48.452;9.216;2024-01-15T01:46:34;-1.00;99.90
8408;DHT22;4241;48.452;9.216;2024-01-15T01:49:05;-1.00;99.90
8408;DHT22;4241;48.452;9.216;2024-01-15T01:51:33;-1.00;99.90
8408;DHT22;4241;48.452;9.216;2024-01-15T01:56:28;-1.00;99.90
8408;DHT22;4241;48.452;9.216;2024-01-15T02:03:50;-1.00;99.90
8408;DHT22;4241;48.452;9.216;2024-01-15T02:06:18;-1.00;99.90
8408;DHT22;4241;48.452;9.216;2024-01-15T02:11:12;-1.00;99.90
8408;DHT22;4241;48.452;9.216;2024-01-15T02:16:06;-1.00;99.90
8408;DHT22;4241;48.452;9.216;2024-01-15T02:18:40;-0.90;99.90
8408;DHT22;4241;48.452;9.216;2024-01-15T02:21:08;-0.90;99.90
8408;DHT22;4241;48.452;9.216;2024-01-15T02:23:38;-1.00;99.90
8408;DHT22;4241;48.452;9.216;2024-01-15T02:26:05;-0.90;99.90
8408;DHT22;4241;48.452;9.216;2024-01-15T02:28:33;-1.00;99.90
8408;DHT22;4241;48.452;9.216;2024-01-15T02:31:00;-1.00;99.90
8408;DHT22;4241;48.452;9.216;2024-01-15T02:33:27;-1.00;99.90
8408;DHT22;4241;48.452;9.216;2024-01-15T02:35:53;-0.90;99.90
8408;DHT22;4241;48.452;9.216;2024-01-15T02:38:20;-1.00;99.90
8408;DHT22;4241;48.452;9.216;2024-01-15T02:40:50;-1.00;99.90
8408;DHT22;4241;48.452;9.216;2024-01-15T02:43:17;-1.00;99.90
8408;DHT22;4241;48.452;9.216;2024-01-15T02:45:44;-0.90;99.90
8408;DHT22;4241;48.452;9.216;2024-01-15T02:48:11;-0.90;99.90
8408;DHT22;4241;48.452;9.216;2024-01-15T02:50:38;-0.90;99.90
8408;DHT22;4241;48.452;9.216;2024-01-15T02:53:05;-0.90;99.90
8408;DHT22;4241;48.452;9.216;2024-01-15T02:55:32;-0.90;99.90
8408;DHT22;4241;48.452;9.216;2024-01-15T02:58:00;-1.00;99.90
8408;DHT22;4241;48.452;9.216;2024-01-15T03:00:27;-0.80;99.90
8408;DHT22;4241;48.452;9.216;2024-01-15T03:02:54;-0.90;99.90
8408;DHT22;4241;48.452;9.216;2024-01-15T03:07:47;-0.80;99.90
8408;DHT22;4241;48.452;9.216;2024-01-15T03:10:14;-0.80;99.90
8408;DHT22;4241;48.452;9.216;2024-01-15T03:12:41;-0.80;99.90
8408;DHT22;4241;48.452;9.216;2024-01-15T03:15:09;-0.80;99.90
8408;DHT22;4241;48.452;9.216;2024-01-15T03:17:36;-0.80;99.90
8408;DHT22;4241;48.452;9.216;2024-01-15T03:20:04;-0.80;99.90
8408;DHT22;4241;48.452;9.216;2024-01-15T03:22:31;-0.80;99.90
8408;DHT22;4241;48.452;9.216;2024-01-15T03:24:58;-0.70;99.90
8408;DHT22;4241;48.452;9.216;2024-01-15T03:27:25;-0.70;99.90
8408;DHT22;4241;48.452;9.216;2024-01-15T03:29:52;-0.60;99.90
8408;DHT22;4241;48.452;9.216;2024-01-15T03:32:20;-0.80;99.90
8408;DHT22;4241;48.452;9.216;2024-01-15T03:37:14;-0.70;99.90
8408;DHT22;4241;48.452;9.216;2024-01-15T03:39:41;-0.70;99.90
8408;DHT22;4241;48.452;9.216;2024-01-15T03:42:08;-0.70;99.90
8408;DHT22;4241;48.452;9.216;2024-01-15T03:47:01;-0.70;99.90
8408;DHT22;4241;48.452;9.216;2024-01-15T03:49:30;-0.80;99.90
8408;DHT22;4241;48.452;9.216;2024-01-15T03:51:56;-0.80;99.90
8408;DHT22;4241;48.452;9.216;2024-01-15T03:56:50;-0.80;99.90
8408;DHT22;4241;48.452;9.216;2024-01-15T03:59:17;-0.80;99.90
8408;DHT22;4241;48.452;9.216;2024-01-15T04:01:48;-0.90;99.90
8408;DHT22;4241;48.452;9.216;2024-01-15T04:04:16;-0.90;99.90
8408;DHT22;4241;48.452;9.216;2024-01-15T04:06:44;-0.90;99.90
8408;DHT22;4241;48.452;9.216;2024-01-15T04:09:12;-1.00;99.90
8408;DHT22;4241;48.452;9.216;2024-01-15T04:11:39;-1.00;99.90
8408;DHT22;4241;48.452;9.216;2024-01-15T04:14:06;-0.90;99.90
8408;DHT22;4241;48.452;9.216;2024-01-15T04:16:33;-1.00;99.90
8408;DHT22;4241;48.452;9.216;2024-01-15T04:18:59;-1.00;99.90
8408;DHT22;4241;48.452;9.216;2024-01-15T04:21:26;-1.00;99.90
8408;DHT22;4241;48.452;9.216;2024-01-15T04:23:54;-1.00;99.90
8408;DHT22;4241;48.452;9.216;2024-01-15T04:26:21;-1.00;99.90
8408;DHT22;4241;48.452;9.216;2024-01-15T04:28:48;-1.00;99.90
8408;DHT22;4241;48.452;9.216;2024-01-15T04:31:21;-1.10;99.90
8408;DHT22;4241;48.452;9.216;2024-01-15T04:33:48;-1.10;99.90
8408;DHT22;4241;48.452;9.216;2024-01-15T04:36:14;-1.10;99.90
8408;DHT22;4241;48.452;9.216;2024-01-15T04:38:41;-0.90;99.90
8408;DHT22;4241;48.452;9.216;2024-01-15T04:41:11;-1.10;99.90
8408;DHT22;4241;48.452;9.216;2024-01-15T04:43:38;-1.10;99.90
8408;DHT22;4241;48.452;9.216;2024-01-15T04:46:05;-1.00;99.90
8408;DHT22;4241;48.452;9.216;2024-01-15T04:48:33;-1.20;99.90
8408;DHT22;4241;48.452;9.216;2024-01-15T04:51:00;-1.30;99.90
8408;DHT22;4241;48.452;9.216;2024-01-15T04:53:27;-1.20;99.90
8408;DHT22;4241;48.452;9.216;2024-01-15T04:58:22;-1.20;99.90
8408;DHT22;4241;48.452;9.216;2024-01-15T05:00:51;-1.20;99.90
8408;DHT22;4241;48.452;9.216;2024-01-15T05:03:18;-1.20;99.90
8408;DHT22;4241;48.452;9.216;2024-01-15T05:05:45;0.20;99.90
8408;DHT22;4241;48.452;9.216;2024-01-15T05:13:06;-1.20;99.90
8408;DHT22;4241;48.452;9.216;2024-01-15T05:15:34;-1.30;99.90
8408;DHT22;4241;48.452;9.216;2024-01-15T05:18:01;-1.20;99.90
8408;DHT22;4241;48.452;9.216;2024-01-15T05:20:28;-1.20;99.90
8408;DHT22;4241;48.452;9.216;2024-01-15T05:30:16;-1.40;99.90
8408;DHT22;4241;48.452;9.216;2024-01-15T05:32:44;-1.20;99.90
8408;DHT22;4241;48.452;9.216;2024-01-15T05:37:43;-1.30;99.90
8408;DHT22;4241;48.452;9.216;2024-01-15T05:40:11;-0.90;99.90
8408;DHT22;4241;48.452;9.216;2024-01-15T05:42:38;-1.20;99.90
8408;DHT22;4241;48.452;9.216;2024-01-15T05:45:05;-1.20;99.90
8408;DHT22;4241;48.452;9.216;2024-01-15T05:47:32;-1.20;99.90
8408;DHT22;4241;48.452;9.216;2024-01-15T05:50:00;-1.20;99.90
8408;DHT22;4241;48.452;9.216;2024-01-15T05:52:27;-1.20;99.90
8408;DHT22;4241;48.452;9.216;2024-01-15T05:54:54;-1.20;99.90
8408;DHT22;4241;48.452;9.216;2024-01-15T05:57:22;-1.10;99.90
8408;DHT22;4241;48.452;9.216;2024-01-15T06:02:15;-1.10;99.90
8408;DHT22;4241;48.452;9.216;2024-01-15T06:07:11;-1.00;99.90
8408;DHT22;4241;48.452;9.216;2024-01-15T06:09:37;-1.10;99.90
8408;DHT22;4241;48.452;9.216;2024-01-15T06:12:07;-1.10;99.90
8408;DHT22;4241;48.452;9.216;2024-01-15T06:14:34;-1.10;99.90
8408;DHT22;4241;48.452;9.216;2024-01-15T06:17:00;-1.00;99.90
8408;DHT22;4241;48.452;9.216;2024-01-15T06:19:28;-1.00;99.90
8408;DHT22;4241;48.452;9.216;2024-01-15T06:21:55;-1.10;99.90
8408;DHT22;4241;48.452;9.216;2024-01-15T06:24:23;-1.10;99.90
8408;DHT22;4241;48.452;9.216;2024-01-15T06:26:50;-1.10;99.90
8408;DHT22;4241;48.452;9.216;2024-01-15T06:29:16;-1.00;99.90
8408;DHT22;4241;48.452;9.216;2024-01-15T06:31:43;-1.00;99.90
8408;DHT22;4241;48.452;9.216;2024-01-15T06:34:10;-1.00;99.90
8408;DHT22;4241;48.452;9.216;2024-01-15T06:36:37;-1.00;99.90
8408;DHT22;4241;48.452;9.216;2024-01-15T06:39:04;-0.70;99.90
8408;DHT22;4241;48.452;9.216;2024-01-15T06:41:32;-1.00;99.90
8408;DHT22;4241;48.452;9.216;2024-01-15T06:43:59;-1.20;99.90
8408;DHT22;4241;48.452;9.216;2024-01-15T06:46:26;-0.90;99.90
8408;DHT22;4241;48.452;9.216;2024-01-15T06:48:52;-1.00;99.90
8408;DHT22;4241;48.452;9.216;2024-01-15T06:51:20;-1.00;99.90
8408;DHT22;4241;48.452;9.216;2024-01-15T06:53:46;-0.90;99.90
8408;DHT22;4241;48.452;9.216;2024-01-15T06:56:13;-1.00;99.90
8408;DHT22;4241;48.452;9.216;2024-01-15T06:58:41;-0.90;99.90
8408;DHT22;4241;48.452;9.216;2024-01-15T07:01:08;-0.90;99.90
8408;DHT22;4241;48.452;9.216;2024-01-15T07:03:35;-1.00;99.90
8408;DHT22;4241;48.452;9.216;2024-01-15T07:06:03;-0.90;99.90
8408;DHT22;4241;48.452;9.216;2024-01-15T07:08:31;-0.90;99.90
8408;DHT22;4241;48.452;9.216;2024-01-15T07:10:57;-0.80;99.90
8408;DHT22;4241;48.452;9.216;2024-01-15T07:13:24;-0.80;99.90
8408;DHT22;4241;48.452;9.216;2024-01-15T07:15:52;-0.90;99.90
8408;DHT22;4241;48.452;9.216;2024-01-15T07:18:19;-0.80;99.90
8408;DHT22;4241;48.452;9.216;2024-01-15T07:20:46;-0.90;99.90
8408;DHT22;4241;48.452;9.216;2024-01-15T07:23:12;-0.80;99.90
8408;DHT22;4241;48.452;9.216;2024-01-15T07:25:39;-0.70;99.90
8408;DHT22;4241;48.452;9.216;2024-01-15T07:28:06;-0.70;99.90
8408;DHT22;4241;48.452;9.216;2024-01-15T07:30:33;-0.70;99.90
8408;DHT22;4241;48.452;9.216;2024-01-15T07:33:01;-0.70;99.90
8408;DHT22;4241;48.452;9.216;2024-01-15T07:35:29;-0.60;99.90
8408;DHT22;4241;48.452;9.216;2024-01-15T07:37:56;-0.60;99.90
8408;DHT22;4241;48.452;9.216;2024-01-15T07:40:23;-0.60;99.90
8408;DHT22;4241;48.452;9.216;2024-01-15T07:42:51;-0.40;99.90
8408;DHT22;4241;48.452;9.216;2024-01-15T07:45:18;-0.50;99.90
8408;DHT22;4241;48.452;9.216;2024-01-15T07:47:44;-0.40;99.90
8408;DHT22;4241;48.452;9.216;2024-01-15T07:50:13;-0.20;99.90
8408;DHT22;4241;48.452;9.216;2024-01-15T07:52:40;-0.30;99.90
8408;DHT22;4241;48.452;9.216;2024-01-15T07:55:07;-0.30;99.90
8408;DHT22;4241;48.452;9.216;2024-01-15T07:57:34;0.10;99.90
8408;DHT22;4241;48.452;9.216;2024-01-15T08:00:02;-0.20;99.90
8408;DHT22;4241;48.452;9.216;2024-01-15T08:02:30;-0.20;99.90
8408;DHT22;4241;48.452;9.216;2024-01-15T08:04:58;-0.20;99.90
8408;DHT22;4241;48.452;9.216;2024-01-15T08:07:26;-0.10;99.90
8408;DHT22;4241;48.452;9.216;2024-01-15T08:09:53;0.00;99.90
8408;DHT22;4241;48.452;9.216;2024-01-15T08:14:48;0.00;99.90
8408;DHT22;4241;48.452;9.216;2024-01-15T08:17:14;0.10;99.90
8408;DHT22;4241;48.452;9.216;2024-01-15T08:19:42;0.10;99.90
8408;DHT22;4241;48.452;9.216;2024-01-15T08:22:09;0.10;99.90
8408;DHT22;4241;48.452;9.216;2024-01-15T08:24:37;0.40;99.90
8408;DHT22;4241;48.452;9.216;2024-01-15T08:27:04;0.20;99.90
8408;DHT22;4241;48.452;9.216;2024-01-15T08:29:31;0.30;99.90
8408;DHT22;4241;48.452;9.216;2024-01-15T08:32:00;0.20;99.90
8408;DHT22;4241;48.452;9.216;2024-01-15T08:34:27;0.30;99.90
8408;DHT22;4241;48.452;9.216;2024-01-15T08:36:54;0.20;99.90
8408;DHT22;4241;48.452;9.216;2024-01-15T08:39:21;0.30;99.90
8408;DHT22;4241;48.452;9.216;2024-01-15T08:41:49;0.30;99.90
8408;DHT22;4241;48.452;9.216;2024-01-15T08:44:16;0.40;99.90
8408;DHT22;4241;48.452;9.216;2024-01-15T08:46:43;0.30;99.90
8408;DHT22;4241;48.452;9.216;2024-01-15T08:49:10;0.40;99.90
8408;DHT22;4241;48.452;9.216;2024-01-15T08:51:37;0.40;99.90
8408;DHT22;4241;48.452;9.216;2024-01-15T08:54:04;0.40;99.90
8408;DHT22;4241;48.452;9.216;2024-01-15T08:56:33;0.50;99.90
8408;DHT22;4241;48.452;9.216;2024-01-15T08:59:02;0.50;99.90
8408;DHT22;4241;48.452;9.216;2024-01-15T09:01:28;0.50;99.90
8408;DHT22;4241;48.452;9.216;2024-01-15T09:03:56;0.60;99.90
8408;DHT22;4241;48.452;9.216;2024-01-15T09:06:23;0.50;99.90
8408;DHT22;4241;48.452;9.216;2024-01-15T09:08:50;0.60;99.90
8408;DHT22;4241;48.452;9.216;2024-01-15T09:11:17;0.60;99.90
8408;DHT22;4241;48.452;9.216;2024-01-15T09:13:44;0.60;99.90
8408;DHT22;4241;48.452;9.216;2024-01-15T09:16:12;0.60;99.90
8408;DHT22;4241;48.452;9.216;2024-01-15T09:18:39;0.70;99.90
8408;DHT22;4241;48.452;9.216;2024-01-15T09:21:05;0.70;99.90
8408;DHT22;4241;48.452;9.216;2024-01-15T09:23:32;0.60;99.90
8408;DHT22;4241;48.452;9.216;2024-01-15T09:25:59;0.70;99.90
8408;DHT22;4241;48.452;9.216;2024-01-15T09:28:26;0.70;99.90
8408;DHT22;4241;48.452;9.216;2024-01-15T09:30:53;0.70;99.90
8408;DHT22;4241;48.452;9.216;2024-01-15T09:33:21;0.70;99.90
8408;DHT22;4241;48.452;9.216;2024-01-15T09:35:48;0.70;99.90
8408;DHT22;4241;48.452;9.216;2024-01-15T09:38:15;0.70;99.90
8408;DHT22;4241;48.452;9.216;2024-01-15T09:40:45;0.70;99.90
8408;DHT22;4241;48.452;9.216;2024-01-15T09:43:14;0.70;99.90
8408;DHT22;4241;48.452;9.216;2024-01-15T09:45:42;0.80;99.90
8408;DHT22;4241;48.452;9.216;2024-01-15T09:48:10;0.80;99.90
8408;DHT22;4241;48.452;9.216;2024-01-15T09:50:38;0.80;99.90
8408;DHT22;4241;48.452;9.216;2024-01-15T09:53:05;0.90;99.90
8408;DHT22;4241;48.452;9.216;2024-01-15T09:55:32;0.90;99.90
8408;DHT22;4241;48.452;9.216;2024-01-15T09:58:00;1.00;99.90
8408;DHT22;4241;48.452;9.216;2024-01-15T10:00:28;1.00;99.90
8408;DHT22;4241;48.452;9.216;2024-01-15T10:02:56;0.90;99.90
8408;DHT22;4241;48.452;9.216;2024-01-15T10:05:23;0.90;99.90
8408;DHT22;4241;48.452;9.216;2024-01-15T10:07:53;1.00;99.90
8408;DHT22;4241;48.452;9.216;2024-01-15T10:10:21;1.00;99.90
8408;DHT22;4241;48.452;9.216;2024-01-15T10:12:49;1.10;99.90
8408;DHT22;4241;48.452;9.216;2024-01-15T10:15:15;1.20;99.90
8408;DHT22;4241;48.452;9.216;2024-01-15T10:20:11;1.40;99.90
8408;DHT22;4241;48.452;9.216;2024-01-15T10:22:40;1.20;99.90
8408;DHT22;4241;48.452;9.216;2024-01-15T10:25:12;1.10;99.90
8408;DHT22;4241;48.452;9.216;2024-01-15T10:27:39;1.30;99.90
8408;DHT22;4241;48.452;9.216;2024-01-15T10:30:07;1.20;99.90
8408;DHT22;4241;48.452;9.216;2024-01-15T10:32:34;1.30;99.90
8408;DHT22;4241;48.452;9.216;2024-01-15T10:35:01;1.20;99.90
8408;DHT22;4241;48.452;9.216;2024-01-15T10:37:28;1.40;99.90
8408;DHT22;4241;48.452;9.216;2024-01-15T10:39:54;1.30;99.90
8408;DHT22;4241;48.452;9.216;2024-01-15T10:42:23;1.40;99.90
8408;DHT22;4241;48.452;9.216;2024-01-15T10:44:49;4.40;99.90
8408;DHT22;4241;48.452;9.216;2024-01-15T10:47:17;1.50;99.90
8408;DHT22;4241;48.452;9.216;2024-01-15T10:49:45;1.30;99.90
8408;DHT22;4241;48.452;9.216;2024-01-15T10:52:12;1.30;99.90
8408;DHT22;4241;48.452;9.216;2024-01-15T10:54:41;1.30;99.90
8408;DHT22;4241;48.452;9.216;2024-01-15T10:57:09;1.40;99.90
8408;DHT22;4241;48.452;9.216;2024-01-15T10:59:38;1.30;99.90
8408;DHT22;4241;48.452;9.216;2024-01-15T11:02:04;1.40;99.90
8408;DHT22;4241;48.452;9.216;2024-01-15T11:04:32;1.30;99.90
8408;DHT22;4241;48.452;9.216;2024-01-15T11:07:00;1.30;99.90
8408;DHT22;4241;48.452;9.216;2024-01-15T11:09:29;1.30;99.90
8408;DHT22;4241;48.452;9.216;2024-01-15T11:12:07;1.30;99.90
8408;DHT22;4241;48.452;9.216;2024-01-15T11:14:34;1.30;99.90
8408;DHT22;4241;48.452;9.216;2024-01-15T11:17:03;1.30;99.90
8408;DHT22;4241;48.452;9.216;2024-01-15T11:19:43;1.30;99.90
8408;DHT22;4241;48.452;9.216;2024-01-15T11:22:47;1.40;99.90
8408;DHT22;4241;48.452;9.216;2024-01-15T11:25:01;1.20;99.90
8408;DHT22;4241;48.452;9.216;2024-01-15T11:27:39;1.20;99.90
8408;DHT22;4241;48.452;9.216;2024-01-15T11:30:08;1.10;99.90
8408;DHT22;4241;48.452;9.216;2024-01-15T11:32:38;1.30;99.90
8408;DHT22;4241;48.452;9.216;2024-01-15T11:35:07;1.30;99.90
8408;DHT22;4241;48.452;9.216;2024-01-15T11:37:58;1.20;99.90
8408;DHT22;4241;48.452;9.216;2024-01-15T11:40:38;1.30;99.90
8408;DHT22;4241;48.452;9.216;2024-01-15T11:43:08;1.30;99.90
8408;DHT22;4241;48.452;9.216;2024-01-15T11:45:36;1.30;99.90
8408;DHT22;4241;48.452;9.216;2024-01-15T11:48:22;1.30;99.90
8408;DHT22;4241;48.452;9.216;2024-01-15T11:50:52;1.20;99.90
8408;DHT22;4241;48.452;9.216;2024-01-15T11:53:32;1.20;99.90
8408;DHT22;4241;48.452;9.216;2024-01-15T11:56:02;1.20;99.90
8408;DHT22;4241;48.452;9.216;2024-01-15T11:58:29;1.10;99.90
8408;DHT22;4241;48.452;9.216;2024-01-15T12:00:56;1.20;99.90
8408;DHT22;4241;48.452;9.216;2024-01-15T12:03:24;1.10;99.90
8408;DHT22;4241;48.452;9.216;2024-01-15T12:05:52;1.20;99.90
8408;DHT22;4241;48.452;9.216;2024-01-15T12:08:21;1.20;99.90
8408;DHT22;4241;48.452;9.216;2024-01-15T12:10:48;1.10;99.90
8408;DHT22;4241;48.452;9.216;2024-01-15T12:13:16;1.10;99.90
8408;DHT22;4241;48.452;9.216;2024-01-15T12:15:44;1.00;99.90
8408;DHT22;4241;48.452;9.216;2024-01-15T12:18:13;1.00;99.90
8408;DHT22;4241;48.452;9.216;2024-01-15T12:20:43;1.00;99.90
8408;DHT22;4241;48.452;9.216;2024-01-15T12:23:12;1.20;99.90
8408;DHT22;4241;48.452;9.216;2024-01-15T12:25:40;0.90;99.90
8408;DHT22;4241;48.452;9.216;2024-01-15T12:30:34;0.90;99.90
8408;DHT22;4241;48.452;9.216;2024-01-15T12:33:03;0.80;99.90
8408;DHT22;4241;48.452;9.216;2024-01-15T12:35:30;1.00;99.90
8408;DHT22;4241;48.452;9.216;2024-01-15T12:37:59;-0.20;99.90
8408;DHT22;4241;48.452;9.216;2024-01-15T12:40:27;0.80;99.90
8408;DHT22;4241;48.452;9.216;2024-01-15T12:42:55;1.00;99.90
8408;DHT22;4241;48.452;9.216;2024-01-15T12:45:22;1.10;99.90
8408;DHT22;4241;48.452;9.216;2024-01-15T12:47:48;1.10;99.90
8408;DHT22;4241;48.452;9.216;2024-01-15T12:50:16;1.10;99.90
8408;DHT22;4241;48.452;9.216;2024-01-15T12:52:43;1.10;99.90
8408;DHT22;4241;48.452;9.216;2024-01-15T12:55:13;1.00;99.90
8408;DHT22;4241;48.452;9.216;2024-01-15T12:57:40;1.10;99.90
8408;DHT22;4241;48.452;9.216;2024-01-15T13:00:07;1.00;99.90
8408;DHT22;4241;48.452;9.216;2024-01-15T13:02:38;1.10;99.90
8408;DHT22;4241;48.452;9.216;2024-01-15T13:05:07;1.10;99.90
8408;DHT22;4241;48.452;9.216;2024-01-15T13:07:35;1.10;99.90
8408;DHT22;4241;48.452;9.216;2024-01-15T13:10:01;1.00;99.90
8408;DHT22;4241;48.452;9.216;2024-01-15T13:12:30;0.90;99.90
8408;DHT22;4241;48.452;9.216;2024-01-15T13:14:58;1.20;99.90
8408;DHT22;4241;48.452;9.216;2024-01-15T13:17:25;0.90;99.90
8408;DHT22;4241;48.452;9.216;2024-01-15T13:19:52;1.00;99.90
8408;DHT22;4241;48.452;9.216;2024-01-15T13:22:18;1.10;99.90
8408;DHT22;4241;48.452;9.216;2024-01-15T13:24:45;0.90;99.90
8408;DHT22;4241;48.452;9.216;2024-01-15T13:27:12;0.90;99.90
8408;DHT22;4241;48.452;9.216;2024-01-15T13:29:41;0.90;99.90
8408;DHT22;4241;48.452;9.216;2024-01-15T13:32:07;0.90;99.90
8408;DHT22;4241;48.452;9.216;2024-01-15T13:34:35;0.90;99.90
8408;DHT22;4241;48.452;9.216;2024-01-15T13:37:02;0.80;99.90
8408;DHT22;4241;48.452;9.216;2024-01-15T13:39:29;0.80;99.90
8408;DHT22;4241;48.452;9.216;2024-01-15T13:41:58;0.70;99.90
8408;DHT22;4241;48.452;9.216;2024-01-15T13:46:54;0.60;99.90
8408;DHT22;4241;48.452;9.216;2024-01-15T13:49:22;0.60;99.90
8408;DHT22;4241;48.452;9.216;2024-01-15T13:51:49;0.60;99.90
8408;DHT22;4241;48.452;9.216;2024-01-15T13:54:16;0.60;99.90
8408;DHT22;4241;48.452;9.216;2024-01-15T13:56:43;0.60;99.90
8408;DHT22;4241;48.452;9.216;2024-01-15T14:01:38;0.60;99.90
8408;DHT22;4241;48.452;9.216;2024-01-15T14:04:06;0.50;99.90
8408;DHT22;4241;48.452;9.216;2024-01-15T14:06:33;0.50;99.90
8408;DHT22;4241;48.452;9.216;2024-01-15T14:09:00;0.60;99.90
8408;DHT22;4241;48.452;9.216;2024-01-15T14:13:56;0.50;99.90
8408;DHT22;4241;48.452;9.216;2024-01-15T14:16:23;0.50;99.90
8408;DHT22;4241;48.452;9.216;2024-01-15T14:18:50;0.50;99.90
8408;DHT22;4241;48.452;9.216;2024-01-15T14:21:19;0.60;99.90
8408;DHT22;4241;48.452;9.216;2024-01-15T14:23:46;0.50;99.90
8408;DHT22;4241;48.452;9.216;2024-01-15T14:26:13;0.50;99.90
8408;DHT22;4241;48.452;9.216;2024-01-15T14:28:40;0.40;99.90
8408;DHT22;4241;48.452;9.216;2024-01-15T14:31:07;0.40;99.90
8408;DHT22;4241;48.452;9.216;2024-01-15T14:33:34;0.40;99.90
8408;DHT22;4241;48.452;9.216;2024-01-15T14:36:01;0.40;99.90
8408;DHT22;4241;48.452;9.216;2024-01-15T14:40:56;0.40;99.90
8408;DHT22;4241;48.452;9.216;2024-01-15T14:43:23;0.30;99.90
8408;DHT22;4241;48.452;9.216;2024-01-15T14:45:50;0.30;99.90
8408;DHT22;4241;48.452;9.216;2024-01-15T14:50:44;0.10;99.90
8408;DHT22;4241;48.452;9.216;2024-01-15T14:53:11;0.50;99.90
8408;DHT22;4241;48.452;9.216;2024-01-15T14:55:39;0.20;99.90
8408;DHT22;4241;48.452;9.216;2024-01-15T14:58:06;0.20;99.90
8408;DHT22;4241;48.452;9.216;2024-01-15T15:00:33;0.10;99.90
8408;DHT22;4241;48.452;9.216;2024-01-15T15:02:59;0.10;99.90
8408;DHT22;4241;48.452;9.216;2024-01-15T15:10:21;0.10;99.90
8408;DHT22;4241;48.452;9.216;2024-01-15T15:12:49;0.00;99.90
8408;DHT22;4241;48.452;9.216;2024-01-15T15:15:16;0.00;99.90
8408;DHT22;4241;48.452;9.216;2024-01-15T15:20:11;-0.10;99.90
8408;DHT22;4241;48.452;9.216;2024-01-15T15:25:06;-0.30;99.90
8408;DHT22;4241;48.452;9.216;2024-01-15T15:27:34;-0.30;99.90
8408;DHT22;4241;48.452;9.216;2024-01-15T15:30:03;-0.20;99.90
8408;DHT22;4241;48.452;9.216;2024-01-15T15:32:30;-0.30;99.90
8408;DHT22;4241;48.452;9.216;2024-01-15T15:34:58;0.40;99.90
8408;DHT22;4241;48.452;9.216;2024-01-15T15:39:52;-0.30;99.90
8408;DHT22;4241;48.452;9.216;2024-01-15T15:44:46;-0.40;99.90
8408;DHT22;4241;48.452;9.216;2024-01-15T15:47:16;-0.30;99.90
8408;DHT22;4241;48.452;9.216;2024-01-15T15:49:45;-0.40;99.90
8408;DHT22;4241;48.452;9.216;2024-01-15T15:52:12;-0.30;99.90
8408;DHT22;4241;48.452;9.216;2024-01-15T15:54:39;-0.40;99.90
8408;DHT22;4241;48.452;9.216;2024-01-15T15:57:06;-0.30;99.90
8408;DHT22;4241;48.452;9.216;2024-01-15T15:59:33;-0.30;99.90
8408;DHT22;4241;48.452;9.216;2024-01-15T16:02:00;-0.30;99.90
8408;DHT22;4241;48.452;9.216;2024-01-15T16:04:28;-0.30;99.90
8408;DHT22;4241;48.452;9.216;2024-01-15T16:06:55;-0.30;99.90
8408;DHT22;4241;48.452;9.216;2024-01-15T16:09:22;-0.30;99.90
8408;DHT22;4241;48.452;9.216;2024-01-15T16:11:48;-0.50;99.90
8408;DHT22;4241;48.452;9.216;2024-01-15T16:14:16;-0.50;99.90
8408;DHT22;4241;48.452;9.216;2024-01-15T16:16:43;-0.50;99.90
8408;DHT22;4241;48.452;9.216;2024-01-15T16:19:10;-0.50;99.90
8408;DHT22;4241;48.452;9.216;2024-01-15T16:21:39;-0.50;99.90
8408;DHT22;4241;48.452;9.216;2024-01-15T16:24:05;-0.50;99.90
8408;DHT22;4241;48.452;9.216;2024-01-15T16:26:32;-0.60;99.90
8408;DHT22;4241;48.452;9.216;2024-01-15T16:28:59;-0.60;99.90
8408;DHT22;4241;48.452;9.216;2024-01-15T16:31:26;-0.60;99.90
8408;DHT22;4241;48.452;9.216;2024-01-15T16:33:53;-0.70;99.90
8408;DHT22;4241;48.452;9.216;2024-01-15T16:36:20;-0.60;99.90
8408;DHT22;4241;48.452;9.216;2024-01-15T16:38:48;-0.60;99.90
8408;DHT22;4241;48.452;9.216;2024-01-15T16:41:15;-0.80;99.90
8408;DHT22;4241;48.452;9.216;2024-01-15T16:43:42;-0.60;99.90
8408;DHT22;4241;48.452;9.216;2024-01-15T16:46:09;-0.60;99.90
8408;DHT22;4241;48.452;9.216;2024-01-15T16:48:36;-0.60;99.90
8408;DHT22;4241;48.452;9.216;2024-01-15T16:51:02;-0.50;99.90
8408;DHT22;4241;48.452;9.216;2024-01-15T16:53:29;-0.60;99.90
8408;DHT22;4241;48.452;9.216;2024-01-15T16:55:58;-0.70;99.90
8408;DHT22;4241;48.452;9.216;2024-01-15T16:58:24;-0.70;99.90
8408;DHT22;4241;48.452;9.216;2024-01-15T17:00:51;-0.80;99.90
8408;DHT22;4241;48.452;9.216;2024-01-15T17:03:18;-0.70;99.90
8408;DHT22;4241;48.452;9.216;2024-01-15T17:05:45;-0.70;99.90
8408;DHT22;4241;48.452;9.216;2024-01-15T17:08:12;-0.70;99.90
8408;DHT22;4241;48.452;9.216;2024-01-15T17:10:39;-0.80;99.90
8408;DHT22;4241;48.452;9.216;2024-01-15T17:13:07;-0.70;99.90
8408;DHT22;4241;48.452;9.216;2024-01-15T17:15:34;-0.70;99.90
8408;DHT22;4241;48.452;9.216;2024-01-15T17:18:02;-0.70;99.90
8408;DHT22;4241;48.452;9.216;2024-01-15T17:20:29;-0.70;99.90
8408;DHT22;4241;48.452;9.216;2024-01-15T17:22:56;-0.60;99.90
8408;DHT22;4241;48.452;9.216;2024-01-15T17:25:23;-0.60;99.90
8408;DHT22;4241;48.452;9.216;2024-01-15T17:27:50;-0.70;99.90
8408;DHT22;4241;48.452;9.216;2024-01-15T17:30:18;-0.70;99.90